• Join FlightAware (Why Join?)
  • Login
  • US Flag 
12:28PM EST


 

Airport Tracker/Info


-or-


 

Live Flight TrackerFlight Track Log ✈ EJM42 ✈ 04-Nov-2013 ✈ EGGW / LTN - KHPN

Flight Track Log - Related Links

Times and Time Zones

All times are in EST time to prevent confusion due to time zone crossing. See the EJM42 flight status page for this flight to view local times or setup timezone preferences in your user account.

Time Position Orientation Groundspeed Altitude Reporting Facility
EST Latitude Longitude Course Direction KTS MPH feet Rate Location/Type
04:14PM 61.0000 -20.0000 286° West 461 531 28,000  Level ETMS Enhanced Traffic Management System
04:16PM 54.0512 -24.1891 253° West  Level Estimated
04:17PM 54.1034 -24.3732 296° West  Level FlightAware Approximate
04:18PM 54.1552 -24.5578 296° West  Level FlightAware Approximate
04:19PM 54.2068 -24.7428 296° West  Level FlightAware Approximate
04:20PM 61.2707 -22.0486 284° West 461 531 28,000  Level FlightAware Transoceanic
04:21PM 61.3023 -22.3071 284° West 461 531 28,000  Level FlightAware Transoceanic
04:22PM 61.3335 -22.5661 284° West 461 531 28,000  Level FlightAware Transoceanic
04:23PM 61.3642 -22.8256 284° West 461 531 28,000  Level FlightAware Transoceanic
04:24PM 61.3943 -23.0856 283° West 461 531 28,000  Level FlightAware Transoceanic
04:25PM 61.4240 -23.3462 283° West 461 531 28,000  Level FlightAware Transoceanic
04:26PM 61.4532 -23.6072 283° West 461 531 28,000  Level FlightAware Transoceanic
04:27PM 61.4818 -23.8687 283° West 461 531 28,000  Level FlightAware Transoceanic
04:28PM 61.5100 -24.1307 283° West 461 531 28,000  Level FlightAware Transoceanic
04:29PM 61.5377 -24.3931 282° West 461 531 28,000  Level FlightAware Transoceanic
04:30PM 61.5648 -24.6561 282° West 461 531 28,000  Level FlightAware Transoceanic
04:31PM 61.5915 -24.9194 282° West 461 531 28,000  Level FlightAware Transoceanic
04:32PM 61.6176 -25.1833 282° West 461 531 28,000  Level FlightAware Transoceanic
04:33PM 61.6433 -25.4475 281° West 461 531 28,000  Level FlightAware Transoceanic
04:34PM 61.6684 -25.7122 281° West 461 531 28,000  Level FlightAware Transoceanic
04:35PM 61.6930 -25.9774 281° West 461 531 28,000  Level FlightAware Transoceanic
04:36PM 61.7171 -26.2429 281° West 461 531 28,000  Level FlightAware Transoceanic
04:37PM 61.7407 -26.5089 280° West 461 531 28,000  Level FlightAware Transoceanic
04:38PM 61.7638 -26.7752 280° West 461 531 28,000  Level FlightAware Transoceanic
04:39PM 61.7863 -27.0420 280° West 461 531 28,000  Level FlightAware Transoceanic
04:40PM 61.8084 -27.3091 280° West 461 531 28,000  Level FlightAware Transoceanic
04:41PM 61.8299 -27.5766 280° West 461 531 28,000  Level FlightAware Transoceanic
04:42PM 61.8509 -27.8445 279° West 461 531 28,000  Level FlightAware Transoceanic
04:43PM 61.8714 -28.1128 279° West 461 531 28,000  Level FlightAware Transoceanic
04:44PM 61.8913 -28.3814 279° West 461 531 28,000  Level FlightAware Transoceanic
04:45PM 61.9108 -28.6503 279° West 461 531 28,000  Level FlightAware Transoceanic
04:46PM 61.9296 -28.9196 278° West 461 531 28,000  Level FlightAware Transoceanic
04:47PM 61.9480 -29.1893 278° West 461 531 28,000  Level FlightAware Transoceanic
04:48PM 61.9659 -29.4592 278° West 461 531 28,000  Level FlightAware Transoceanic
04:49PM 61.9832 -29.7294 278° West 461 531 28,000  Level FlightAware Transoceanic
04:50PM 61.9459 -29.9719 252° West  Level Estimated
04:50PM 62.0000 -30.0000 274° West 456 525 28,000  Level ETMS Enhanced Traffic Management System
04:51PM 61.9081 -30.2138 252° West  Level Estimated
04:52PM 61.8700 -30.4551 252° West  Level Estimated
04:53PM 61.8314 -30.6958 251° West  Level Estimated
04:54PM 61.7923 -30.9359 251° West  Level Estimated
04:55PM 61.7529 -31.1753 251° West  Level Estimated
04:56PM 61.7131 -31.4142 251° West  Level Estimated
04:57PM 62.0613 -32.1584 273° West 456 525 28,000  Level FlightAware Transoceanic
04:58PM 62.0666 -32.4287 272° West 456 525 28,000  Level FlightAware Transoceanic
04:59PM 62.0713 -32.6991 272° West 456 525 28,000  Level FlightAware Transoceanic
05:00PM 62.0756 -32.9696 272° West 456 525 28,000  Level FlightAware Transoceanic
05:01PM 62.0793 -33.2402 272° West 456 525 28,000  Level FlightAware Transoceanic
05:02PM 62.0825 -33.5108 271° West 456 525 28,000  Level FlightAware Transoceanic
05:03PM 62.0851 -33.7815 271° West 456 525 28,000  Level FlightAware Transoceanic
05:04PM 62.0872 -34.0522 271° West 456 525 28,000  Level FlightAware Transoceanic
05:05PM 62.0888 -34.3230 271° West 456 525 28,000  Level FlightAware Transoceanic
05:06PM 62.0899 -34.5938 270° West 456 525 28,000  Level FlightAware Transoceanic
05:07PM 62.0904 -34.8646 270° West 456 525 28,000  Level FlightAware Transoceanic
05:08PM 62.0904 -35.1354 270° West 456 525 28,000  Level FlightAware Transoceanic
05:09PM 62.0899 -35.4062 270° West 456 525 28,000  Level FlightAware Transoceanic
05:10PM 62.0888 -35.6770 269° West 456 525 28,000  Level FlightAware Transoceanic
05:11PM 62.0872 -35.9478 269° West 456 525 28,000  Level FlightAware Transoceanic
05:12PM 62.0851 -36.2185 269° West 456 525 28,000  Level FlightAware Transoceanic
05:13PM 62.0825 -36.4892 269° West 456 525 28,000  Level FlightAware Transoceanic
05:14PM 62.0793 -36.7598 268° West 456 525 28,000  Level FlightAware Transoceanic
05:15PM 62.0756 -37.0304 268° West 456 525 28,000  Level FlightAware Transoceanic
05:16PM 62.0713 -37.3009 268° West 456 525 28,000  Level FlightAware Transoceanic
05:17PM 62.0666 -37.5713 268° West 456 525 28,000  Level FlightAware Transoceanic
05:18PM 62.0613 -37.8416 267° West 456 525 28,000  Level FlightAware Transoceanic
05:19PM 62.0555 -38.1119 267° West 456 525 28,000  Level FlightAware Transoceanic
05:20PM 62.0491 -38.3820 267° West 456 525 28,000  Level FlightAware Transoceanic
05:21PM 62.0423 -38.6520 267° West 456 525 28,000  Level FlightAware Transoceanic
05:22PM 62.0349 -38.9219 267° West 456 525 28,000  Level FlightAware Transoceanic
05:23PM 62.0269 -39.1917 266° West 456 525 28,000  Level FlightAware Transoceanic
05:24PM 62.0185 -39.4613 266° West 456 525 28,000  Level FlightAware Transoceanic
05:25PM 62.0095 -39.7307 266° West 456 525 28,000  Level FlightAware Transoceanic
05:25PM 62.0000 -40.0000 252° West 471 542 28,000  Level ETMS Enhanced Traffic Management System
05:26PM 62.0005 -39.9855 266° West  Level FlightAware Approximate
05:27PM 61.9910 -40.2401 266° West  Level FlightAware Approximate
05:28PM 61.9670 -40.2151 252° West  Level FlightAware Approximate
05:29PM 61.9294 -40.4572 252° West  Level FlightAware Approximate
05:30PM 61.8913 -40.6987 252° West  Level FlightAware Approximate
05:31PM 61.8529 -40.9397 251° West  Level FlightAware Approximate
05:32PM 61.6604 -42.0992 250° West 471 542 28,000  Level FlightAware Transoceanic
05:33PM 61.6157 -42.3583 250° West 471 542 28,000  Level FlightAware Transoceanic
05:34PM 61.5705 -42.6166 250° West 471 542 28,000  Level FlightAware Transoceanic
05:35PM 61.5249 -42.8742 249° West 471 542 28,000  Level FlightAware Transoceanic
05:36PM 61.4787 -43.1311 249° West 471 542 28,000  Level FlightAware Transoceanic
05:37PM 61.4321 -43.3871 249° West 471 542 28,000  Level FlightAware Transoceanic
05:38PM 61.3850 -43.6424 249° West 471 542 28,000  Level FlightAware Transoceanic
05:39PM 61.3374 -43.8969 249° West 471 542 28,000  Level FlightAware Transoceanic
05:40PM 61.2894 -44.1507 248° West 471 542 28,000  Level FlightAware Transoceanic
05:41PM 61.2408 -44.4037 248° West 471 542 28,000  Level FlightAware Transoceanic
05:42PM 61.1918 -44.6558 248° West 471 542 28,000  Level FlightAware Transoceanic
05:43PM 61.1424 -44.9072 248° West 471 542 28,000  Level FlightAware Transoceanic
05:44PM 61.0924 -45.1578 247° West 471 542 28,000  Level FlightAware Transoceanic
05:45PM 61.0420 -45.4077 247° West 471 542 28,000  Level FlightAware Transoceanic
05:46PM 60.9912 -45.6567 247° West 471 542 28,000  Level FlightAware Transoceanic
05:47PM 60.9399 -45.9049 247° West 471 542 28,000  Level FlightAware Transoceanic
05:48PM 60.8881 -46.1523 247° West 471 542 28,000  Level FlightAware Transoceanic
05:49PM 60.8359 -46.3989 246° West 471 542 28,000  Level FlightAware Transoceanic
05:50PM 60.7832 -46.6447 246° West 471 542 28,000  Level FlightAware Transoceanic
05:51PM 60.7301 -46.8897 246° West 471 542 28,000  Level FlightAware Transoceanic
05:52PM 60.6766 -47.1339 246° West 471 542 28,000  Level FlightAware Transoceanic
05:53PM 60.6226 -47.3773 246° West 471 542 28,000  Level FlightAware Transoceanic
05:54PM 60.5681 -47.6198 245° Southwest 471 542 28,000  Level FlightAware Transoceanic
05:55PM 60.5132 -47.8615 245° Southwest 471 542 28,000  Level FlightAware Transoceanic
05:56PM 60.4579 -48.1025 245° Southwest 471 542 28,000  Level FlightAware Transoceanic
05:57PM 60.4022 -48.3425 245° Southwest 471 542 28,000  Level FlightAware Transoceanic
05:58PM 60.3460 -48.5818 244° Southwest 471 542 28,000  Level FlightAware Transoceanic
05:59PM 60.2894 -48.8203 244° Southwest 471 542 28,000  Level FlightAware Transoceanic
06:00PM 60.2323 -49.0579 244° Southwest 471 542 28,000  Level FlightAware Transoceanic
06:01PM 60.1749 -49.2946 244° Southwest 471 542 28,000  Level FlightAware Transoceanic
06:02PM 60.1170 -49.5306 244° Southwest 471 542 28,000  Level FlightAware Transoceanic
06:03PM 60.0587 -49.7657 243° Southwest 471 542 28,000  Level FlightAware Transoceanic
06:04PM 60.0050 -49.9803 243° Southwest  Level FlightAware Approximate
06:05PM 59.9509 -50.1943 243° Southwest  Level FlightAware Approximate
06:06PM 59.9714 -50.1872 253° West  Level FlightAware Approximate
06:06PM 60.0000 -50.0000 253° West 437 503 28,000  Level ETMS Enhanced Traffic Management System
06:07PM 59.9359 -50.4160 253° West  Level FlightAware Approximate
06:08PM 59.9001 -50.6443 253° West  Level FlightAware Approximate
06:09PM 59.8639 -50.8722 253° West  Level FlightAware Approximate
06:10PM 59.8273 -51.0995 252° West  Level FlightAware Approximate
06:11PM 59.7903 -51.3264 252° West  Level FlightAware Approximate
06:12PM 59.7529 -51.5527 252° West  Level FlightAware Approximate
06:13PM 59.7039 -51.8448 251° West 437 503 28,000  Level FlightAware Transoceanic
06:14PM 59.6651 -52.0731 251° West 437 503 28,000  Level FlightAware Transoceanic
06:15PM 59.6259 -52.3009 251° West 437 503 28,000  Level FlightAware Transoceanic
06:16PM 59.5863 -52.5281 251° West 437 503 28,000  Level FlightAware Transoceanic
06:17PM 59.5463 -52.7547 251° West 437 503 28,000  Level FlightAware Transoceanic
06:18PM 59.5059 -52.9809 251° West 437 503 28,000  Level FlightAware Transoceanic
06:19PM 59.4651 -53.2064 250° West 437 503 28,000  Level FlightAware Transoceanic
06:20PM 59.4239 -53.4315 250° West 437 503 28,000  Level FlightAware Transoceanic
06:21PM 59.3824 -53.6560 250° West 437 503 28,000  Level FlightAware Transoceanic
06:22PM 59.3404 -53.8799 250° West 437 503 28,000  Level FlightAware Transoceanic
06:23PM 59.2981 -54.1033 250° West 437 503 28,000  Level FlightAware Transoceanic
06:24PM 59.2554 -54.3261 249° West 437 503 28,000  Level FlightAware Transoceanic
06:25PM 59.2123 -54.5484 249° West 437 503 28,000  Level FlightAware Transoceanic
06:26PM 59.1689 -54.7701 249° West 437 503 28,000  Level FlightAware Transoceanic
06:27PM 59.1250 -54.9912 249° West 437 503 28,000  Level FlightAware Transoceanic
06:28PM 59.0808 -55.2118 249° West 437 503 28,000  Level FlightAware Transoceanic
06:29PM 59.0363 -55.4318 248° West 437 503 28,000  Level FlightAware Transoceanic
06:30PM 58.9913 -55.6512 248° West 437 503 28,000  Level FlightAware Transoceanic
06:31PM 58.9460 -55.8701 248° West 437 503 28,000  Level FlightAware Transoceanic
06:32PM 58.9003 -56.0883 248° West 437 503 28,000  Level FlightAware Transoceanic
06:33PM 58.8542 -56.3060 248° West 437 503 28,000  Level FlightAware Transoceanic
06:34PM 58.8078 -56.5232 247° West 437 503 28,000  Level FlightAware Transoceanic
06:35PM 58.7610 -56.7397 247° West 437 503 28,000  Level FlightAware Transoceanic
06:36PM 58.7138 -56.9556 247° West 437 503 28,000  Level FlightAware Transoceanic
06:36PM 58.7667 -56.6500 246° West 420 483 28,000  Level Gander Center
06:37PM 58.6663 -57.1710 247° West 437 503 28,000  Level FlightAware Transoceanic
06:37PM 58.7333 -56.8833 255° West 420 483 28,000  Level Gander Center
06:38PM 58.6185 -57.3858 247° West 437 503 28,000  Level FlightAware Transoceanic
06:38PM 58.6833 -57.0833 244° Southwest 420 483 28,000  Level Gander Center
06:39PM 58.5703 -57.6000 247° West 437 503 28,000  Level FlightAware Transoceanic
06:39PM 58.6500 -57.2833 252° West 420 483 28,000  Level Gander Center
06:40PM 58.5217 -57.8136 246° West 437 503 28,000  Level FlightAware Transoceanic
06:40PM 58.5833 -57.5167 241° Southwest 420 483 28,000  Level Gander Center
06:41PM 58.4727 -58.0266 246° West 437 503 28,000  Level FlightAware Transoceanic
06:41PM 58.5333 -57.7000 242° Southwest 420 483 28,000  Level Gander Center
06:42PM 58.4234 -58.2390 246° West 437 503 28,000  Level FlightAware Transoceanic
06:42PM 58.5000 -57.9000 252° West 420 483 28,000  Level Gander Center
06:43PM 58.4500 -58.1000 245° Southwest 420 483 28,000  Level Gander Center
06:44PM 58.4000 -58.3167 246° West 420 483 28,000  Level Gander Center
06:45PM 58.3500 -58.5167 245° Southwest 420 483 28,000  Level Gander Center
06:46PM 58.3167 -58.7167 252° West 420 483 28,000  Level Gander Center
06:47PM 58.2667 -58.9333 246° West 420 483 28,000  Level Gander Center
06:48PM 58.2167 -59.1333 245° Southwest 420 483 28,000  Level Gander Center
06:49PM 58.1667 -59.3167 243° Southwest 420 483 28,000  Level Gander Center
06:50PM 58.1000 -59.5167 238° Southwest 420 483 28,000  Level Gander Center
06:51PM 58.0667 -59.7333 254° West 420 483 28,000  Level Gander Center
06:52PM 58.0167 -59.9333 245° Southwest 420 483 28,000  Level Gander Center
06:53PM 57.9667 -60.1167 243° Southwest 420 483 28,000  Level Gander Center
06:54PM 57.9000 -60.3167 238° Southwest 430 495 28,000  Level Gander Center
06:55PM 57.8000 -60.4667 219° Southwest 440 506 28,000  Level Gander Center
06:56PM 57.6833 -60.6000 211° Southwest 460 529 28,000  Level Gander Center
06:57PM 57.5833 -60.7500 219° Southwest 460 529 28,000  Level Gander Center
06:58PM 57.4833 -60.8833 216° Southwest 460 529 28,000  Level Gander Center
06:59PM 57.3667 -61.0000 208° Southwest 460 529 28,000  Level Gander Center
07:00PM 57.2667 -61.1667 222° Southwest 460 529 28,000  Level Gander Center
07:01PM 57.1667 -61.2833 212° Southwest 460 529 28,000  Level Gander Center
07:02PM 57.0500 -61.4000 209° Southwest 460 529 28,000  Level Gander Center
07:03PM 56.9500 -61.5333 216° Southwest 450 518 28,000  Level Gander Center
07:04PM 56.8333 -61.6833 215° Southwest 460 529 28,000  Level Gander Center
07:05PM 56.7333 -61.8000 213° Southwest 470 541 28,000  Level Gander Center
07:06PM 56.6333 -61.9500 220° Southwest 470 541 28,000  Level Gander Center
07:07PM 56.5167 -62.0667 209° Southwest 470 541 28,000  Level Gander Center
07:08PM 56.4167 -62.2167 220° Southwest 470 541 28,000  Level Gander Center
07:09PM 56.3167 -62.3000 205° Southwest 410 472 28,000  Level Gander Center
07:10PM 56.2167 -62.4167 213° Southwest 440 506 28,000  Level Gander Center
07:11PM 56.1167 -62.5667 220° Southwest 470 541 28,000  Level Gander Center
07:12PM 56.0000 -62.6833 209° Southwest 460 529 28,000  Level Gander Center
07:13PM 55.9000 -62.8000 213° Southwest 470 541 28,000  Level Gander Center
07:14PM 55.7667 -62.9500 212° Southwest 460 529 28,000  Level Gander Center
07:16PM 55.5667 -63.1667 212° Southwest 470 541 28,000  Level Gander Center
07:17PM 55.4500 -63.3167 216° Southwest 470 541 28,000  Level Gander Center
07:18PM 55.3500 -63.4333 214° Southwest 470 541 28,000  Level Gander Center
07:19PM 55.2333 -63.5667 213° Southwest 470 541 28,000  Level Gander Center
07:20PM 55.1167 -63.6833 210° Southwest 480 552 28,000  Level Gander Center
07:21PM 55.0000 -63.8167 213° Southwest 480 552 28,000  Level Gander Center
07:22PM 54.8833 -63.9333 210° Southwest 480 552 28,000  Level Gander Center
07:23PM 54.7667 -64.0667 213° Southwest 480 552 28,000  Level Gander Center
07:24PM 54.6667 -64.1667 210° Southwest 480 552 28,000  Level Gander Center
07:25PM 54.5500 -64.3000 214° Southwest 480 552 28,000  Level Gander Center
07:26PM 54.4333 -64.4167 210° Southwest 480 552 28,000  Level Gander Center
07:27PM 54.3167 -64.5500 214° Southwest 480 552 28,000  Level Gander Center
07:28PM 54.2000 -64.6500 207° Southwest 480 552 28,000  Level Gander Center
07:29PM 54.1000 -64.7833 218° Southwest 480 552 28,000  Level Gander Center
07:30PM 53.9833 -64.9000 210° Southwest 480 552 28,000  Level Gander Center
07:31PM 53.8667 -65.0000 207° Southwest 470 541 28,000  Level Gander Center
07:32PM 53.7500 -65.1333 214° Southwest 480 552 28,000  Level Gander Center
07:33PM 53.6333 -65.2333 207° Southwest 480 552 28,000  Level Gander Center
07:34PM 53.5333 -65.3667 218° Southwest 480 552 28,000  Level Gander Center
07:35PM 53.4000 -65.4667 204° Southwest 480 552 28,000  Level Gander Center
07:36PM 53.2833 -65.5833 211° Southwest 480 552 28,000  Level Gander Center
07:37PM 53.2167 -65.6167 197° South 510 587 28,000  Level Montreal Center
07:38PM 53.0833 -65.7333 208° Southwest 480 552 28,000  Level Montreal Center
07:39PM 52.9667 -65.8500 211° Southwest 480 552 28,000  Level Montreal Center
07:40PM 52.8500 -65.9833 215° Southwest 480 552 28,000  Level Montreal Center
07:41PM 52.7333 -66.1000 211° Southwest 480 552 28,000  Level Montreal Center
07:42PM 52.6333 -66.2000 211° Southwest 480 552 28,000  Level Montreal Center
07:43PM 52.5167 -66.3167 211° Southwest 470 541 28,000  Level Montreal Center
07:44PM 52.4000 -66.4333 211° Southwest 470 541 28,000  Level Montreal Center
07:45PM 52.2833 -66.5333 208° Southwest 470 541 28,000  Level Montreal Center
07:46PM 52.1833 -66.6333 212° Southwest 480 552 28,000  Level Montreal Center
07:47PM 52.0500 -66.7500 208° Southwest 480 552 28,000  Level Montreal Center
07:48PM 51.9333 -66.8500 208° Southwest 480 552 28,000  Level Montreal Center
07:49PM 51.8167 -66.9667 212° Southwest 480 552 28,000  Level Montreal Center
07:50PM 51.7000 -67.0667 208° Southwest 470 541 28,000  Level Montreal Center
07:51PM 51.5833 -67.1667 208° Southwest 480 552 28,000  Level Montreal Center
07:52PM 51.4833 -67.2667 212° Southwest 480 552 28,000  Level Montreal Center
07:53PM 51.3500 -67.3833 209° Southwest 480 552 28,000  Level Montreal Center
07:54PM 51.2500 -67.4833 212° Southwest 480 552 28,000  Level Montreal Center
07:55PM 51.1333 -67.5833 208° Southwest 480 552 28,000  Level Montreal Center
07:56PM 51.0000 -67.6833 205° Southwest 480 552 28,000  Level Montreal Center
07:57PM 50.9000 -67.7833 212° Southwest 480 552 28,000  Level Montreal Center
07:58PM 50.7667 -67.9000 209° Southwest 480 552 28,000  Level Montreal Center
07:59PM 50.6500 -68.0000 209° Southwest 480 552 28,000  Level Montreal Center
08:00PM 50.5333 -68.1000 209° Southwest 480 552 28,000  Level Montreal Center
08:01PM 50.4167 -68.2000 209° Southwest 470 541 28,000  Level Montreal Center
08:02PM 50.3000 -68.2833 205° Southwest 470 541 28,000  Level Montreal Center
08:03PM 50.2000 -68.3833 213° Southwest 470 541 28,000  Level Montreal Center
08:04PM 50.0833 -68.4833 209° Southwest 470 541 28,000  Level Montreal Center
08:05PM 49.9500 -68.5833 206° Southwest 470 541 28,000  Level Montreal Center
08:06PM 49.8333 -68.6833 209° Southwest 470 541 28,000  Level Montreal Center
08:07PM 49.7333 -68.7833 213° Southwest 470 541 28,000  Level Montreal Center
08:08PM 49.6167 -68.8667 205° Southwest 470 541 28,000  Level Montreal Center
08:09PM 49.4833 -68.9667 206° Southwest 470 541 28,000  Level Montreal Center
08:10PM 49.3667 -69.0667 209° Southwest 470 541 28,000  Level Montreal Center
08:11PM 49.2667 -69.1500 209° Southwest 470 541 28,000  Level Montreal Center
08:12PM 49.1500 -69.2500 209° Southwest 470 541 28,000  Level Montreal Center
08:13PM 49.0333 -69.3500 209° Southwest 460 529 28,000  Level Montreal Center
08:15PM 48.8167 -69.5333 209° Southwest 460 529 28,000  Level Montreal Center
08:16PM 48.6833 -69.6167 202° Southwest 460 529 28,000  Level Montreal Center
08:17PM 48.5667 -69.7167 210° Southwest 460 529 28,000  Level Montreal Center
08:18PM 48.4500 -69.8000 205° Southwest 460 529 28,000  Level Montreal Center
08:19PM 48.3500 -69.9000 214° Southwest 470 541 28,000  Level Montreal Center
08:20PM 48.2333 -69.9833 205° Southwest 470 541 28,000  Level Montreal Center
08:21PM 48.1000 -70.0833 207° Southwest 470 541 28,000  Level Montreal Center
08:22PM 47.9833 -70.1667 206° Southwest 470 541 28,000  Level Montreal Center
08:23PM 47.8833 -70.2500 209° Southwest 470 541 28,000  Level Montreal Center
08:24PM 47.7667 -70.3500 210° Southwest 470 541 28,000  Level Montreal Center
08:25PM 47.6500 -70.4333 206° Southwest 460 529 28,000  Level Montreal Center
08:26PM 47.5167 -70.5167 203° Southwest 460 529 28,000  Level Montreal Center
08:27PM 47.4000 -70.6000 206° Southwest 470 541 28,000  Level Montreal Center
08:28PM 47.3167 -70.6833 214° Southwest 470 541 28,000  Level Montreal Center
08:29PM 47.1833 -70.7833 207° Southwest 460 529 28,000  Level Montreal Center
08:30PM 47.0667 -70.8667 206° Southwest 460 529 28,000  Level Montreal Center
08:31PM 46.9500 -70.9500 206° Southwest 470 541 28,000  Level Montreal Center
08:32PM 46.8333 -71.0333 206° Southwest 470 541 28,000  Level Montreal Center
08:33PM 46.7167 -71.1167 206° Southwest 470 541 28,000  Level Montreal Center
08:34PM 46.6000 -71.2000 206° Southwest 470 541 28,000  Level Montreal Center
08:35PM 46.4833 -71.2833 206° Southwest 470 541 28,000  Level Montreal Center
08:36PM 46.3667 -71.3667 206° Southwest 470 541 28,000  Level Montreal Center
08:37PM 46.2500 -71.4500 206° Southwest 470 541 28,000  Level Montreal Center
08:38PM 46.1333 -71.5333 206° Southwest 470 541 28,000  Level Montreal Center
08:39PM 46.0000 -71.6167 203° Southwest 470 541 28,000  Level Montreal Center
08:40PM 45.9000 -71.7000 210° Southwest 470 541 28,000  Level Montreal Center
08:41PM 45.7833 -71.7833 206° Southwest 470 541 28,000  Level Montreal Center
08:42PM 45.6667 -71.8667 207° Southwest 470 541 28,000  Level Montreal Center
08:43PM 45.5500 -71.9500 207° Southwest 460 529 28,000  Level Montreal Center
08:44PM 45.4333 -72.0333 207° Southwest 460 529 28,000  Level Montreal Center
08:45PM 45.3167 -72.1000 202° Southwest 460 529 28,000  Level Montreal Center
08:46PM 45.2000 -72.1833 207° Southwest 460 529 28,000  Level Montreal Center
08:47PM 45.0833 -72.2667 207° Southwest 470 541 28,000  Level Montreal Center
08:48PM 45.0131 -72.3358 215° Southwest 462 532 28,000  Level Boston Center
08:49PM 44.8958 -72.4136 205° Southwest 462 532 28,000  Level Boston Center
08:50PM 44.7781 -72.4925 205° Southwest 465 535 28,000  Level Boston Center
08:51PM 44.6631 -72.5711 206° Southwest 458 527 28,000  Level Boston Center
08:52PM 44.5464 -72.6486 205° Southwest 459 528 28,000  Level Boston Center
08:53PM 44.4292 -72.7264 205° Southwest 461 531 28,000 -360 Level Boston Center
08:54PM 44.3150 -72.8011 205° Southwest 451 519 27,300 -840 Descending Boston Center
08:55PM 44.2083 -72.8717 205° Southwest 427 491 26,300 -1,020 Descending Boston Center
08:56PM 44.1025 -72.9397 205° Southwest 419 482 25,300 -1,020 Descending Boston Center
08:57PM 43.9975 -73.0083 205° Southwest 416 479 24,300 -1,020 Descending Boston Center
08:58PM 43.8947 -73.0744 205° Southwest 409 471 23,300 -1,020 Descending Boston Center
08:59PM 43.7939 -73.1419 206° Southwest 405 466 22,300 -1,020 Descending Boston Center
09:00PM 43.6900 -73.2067 204° Southwest 408 470 21,300 -1,020 Descending Boston Center
09:01PM 43.5892 -73.2719 205° Southwest 402 463 20,300 -660 Descending Boston Center
09:02PM 43.4881 -73.3361 205° Southwest 401 461 20,000 -360 Descending Boston Center
09:03PM 43.3869 -73.4019 205° Southwest 402 463 19,600 -840 Descending Boston Center
09:04PM 43.2775 -73.4722 205° Southwest 394 453 18,300 -900 Descending Boston Center
09:05PM 43.1744 -73.5392 205° Southwest 381 438 17,900 -720 Descending Boston Center
09:06PM 43.0800 -73.6011 206° Southwest 378 435 16,900 -960 Descending Boston Center
09:07PM 42.9858 -73.6617 205° Southwest 375 432 16,000 -480 Descending Boston Center
09:08PM 42.8919 -73.7228 205° Southwest 374 430 16,000  Level Boston Center
09:09PM 42.7986 -73.7833 205° Southwest 373 429 16,000 -60 Level Boston Center
09:10PM 42.6919 -73.8067 189° South 381 438 15,900 -600 Descending Boston Center
09:11PM 42.5847 -73.8067 180° South 382 440 14,900 -1,140 Descending Boston Center
09:12PM 42.4708 -73.8083 181° South 381 438 13,700 -1,140 Descending Boston Center
09:13PM 42.3683 -73.8100 181° South 371 427 12,700 -900 Descending Boston Center
09:14PM 42.2678 -73.8128 181° South 363 418 12,000 -360 Descending Boston Center
09:15PM 42.1650 -73.8142 181° South 370 426 12,000 -300 Level Boston Center
09:16PM 42.0575 -73.8178 181° South 370 426 11,400 -720 Descending Boston Center
09:17PM 41.9606 -73.8172 180° South 349 402 10,600 -840 Descending Boston Center
09:18PM 41.8783 -73.8206 182° South 300 345 9,800 -780 Descending Boston Center
09:19PM 41.7961 -73.8222 181° South 295 339 9,100 -720 Descending Boston Center
09:20PM 41.7161 -73.8239 181° South 288 331 8,400 -720 Descending Boston Center
09:21PM 41.6328 -73.8319 184° South 281 323 7,700 -660 Descending Boston Center
09:22PM 41.5583 -73.8517 191° South 274 315 7,100 -660 Descending Boston Center
09:23PM 41.4856 -73.8706 191° South 266 306 6,400 -780 Descending Boston Center
09:24PM 41.4139 -73.8594 173° South 262 302 5,600 -900 Descending Boston Center
09:25PM 41.3528 -73.8081 148° Southeast 260 299 4,700 -780 Descending Boston Center
09:26PM 41.2958 -73.7561 146° Southeast 251 289 4,100 -360 Descending Boston Center
09:27PM 41.2336 -73.7006 146° Southeast 251 289 4,000 -540 Descending Boston Center
09:28PM 41.1700 -73.6633 156° South 249 287 3,100 -600 Descending Boston Center
09:30PM 41.1000 -73.6167 153° Southeast 226 260 2,800 -420 Descending New York TRACON
09:31PM 41.0500 -73.6000 166° South 181 208 2,200 -360 Descending New York TRACON
09:32PM 41.0000 -73.5833 166° South 156 180 2,100 -120 Descending New York TRACON
09:33PM 40.9833 -73.6167 236° Southwest 145 167 2,000 -240 Descending New York TRACON
09:34PM 41.0000 -73.6667 294° West 136 157 1,700 -480 Descending New York TRACON
09:34PM 41.0333 -73.6833 339° North 130 150 1,100 -720 Descending New York TRACON